sensor_id;sensor_type;location;lat;lon;timestamp;P1;durP1;ratioP1;P2;durP2;ratioP2
21386;SDS011;10854;45.922;6.716;2023-07-31T00:02:19;4.13;;;2.50;;
21386;SDS011;10854;45.922;6.716;2023-07-31T00:04:47;4.13;;;2.63;;
21386;SDS011;10854;45.922;6.716;2023-07-31T00:07:16;3.73;;;2.60;;
21386;SDS011;10854;45.922;6.716;2023-07-31T00:09:45;5.00;;;2.87;;
21386;SDS011;10854;45.922;6.716;2023-07-31T00:12:14;3.77;;;2.90;;
21386;SDS011;10854;45.922;6.716;2023-07-31T00:14:42;4.60;;;2.87;;
21386;SDS011;10854;45.922;6.716;2023-07-31T00:17:11;4.00;;;2.60;;
21386;SDS011;10854;45.922;6.716;2023-07-31T00:19:40;4.57;;;2.90;;
21386;SDS011;10854;45.922;6.716;2023-07-31T00:22:08;3.17;;;2.83;;
21386;SDS011;10854;45.922;6.716;2023-07-31T00:24:37;4.30;;;2.90;;
21386;SDS011;10854;45.922;6.716;2023-07-31T00:27:05;8.90;;;2.90;;
21386;SDS011;10854;45.922;6.716;2023-07-31T00:29:34;4.37;;;2.77;;
21386;SDS011;10854;45.922;6.716;2023-07-31T00:32:03;5.00;;;2.63;;
21386;SDS011;10854;45.922;6.716;2023-07-31T00:34:32;4.70;;;2.80;;
21386;SDS011;10854;45.922;6.716;2023-07-31T00:37:01;3.87;;;2.60;;
21386;SDS011;10854;45.922;6.716;2023-07-31T00:39:30;4.10;;;2.57;;
21386;SDS011;10854;45.922;6.716;2023-07-31T00:41:59;3.90;;;3.00;;
21386;SDS011;10854;45.922;6.716;2023-07-31T00:44:27;4.20;;;2.87;;
21386;SDS011;10854;45.922;6.716;2023-07-31T00:46:57;2.73;;;2.50;;
21386;SDS011;10854;45.922;6.716;2023-07-31T00:49:26;3.97;;;2.80;;
21386;SDS011;10854;45.922;6.716;2023-07-31T00:51:55;4.73;;;2.90;;
21386;SDS011;10854;45.922;6.716;2023-07-31T00:54:25;3.20;;;2.80;;
21386;SDS011;10854;45.922;6.716;2023-07-31T00:56:53;3.30;;;2.67;;
21386;SDS011;10854;45.922;6.716;2023-07-31T00:59:22;5.33;;;2.93;;
21386;SDS011;10854;45.922;6.716;2023-07-31T01:01:51;4.80;;;3.00;;
21386;SDS011;10854;45.922;6.716;2023-07-31T01:04:20;4.50;;;2.70;;
21386;SDS011;10854;45.922;6.716;2023-07-31T01:06:56;3.63;;;2.77;;
21386;SDS011;10854;45.922;6.716;2023-07-31T01:12:34;4.63;;;2.60;;
21386;SDS011;10854;45.922;6.716;2023-07-31T01:15:05;3.23;;;2.57;;
21386;SDS011;10854;45.922;6.716;2023-07-31T01:17:38;3.70;;;2.73;;
21386;SDS011;10854;45.922;6.716;2023-07-31T01:20:12;5.23;;;2.67;;
21386;SDS011;10854;45.922;6.716;2023-07-31T01:28:42;3.30;;;2.80;;
21386;SDS011;10854;45.922;6.716;2023-07-31T01:31:23;4.60;;;2.73;;
21386;SDS011;10854;45.922;6.716;2023-07-31T01:33:53;5.50;;;2.80;;
21386;SDS011;10854;45.922;6.716;2023-07-31T01:36:25;6.63;;;3.03;;
21386;SDS011;10854;45.922;6.716;2023-07-31T01:39:00;4.27;;;2.80;;
21386;SDS011;10854;45.922;6.716;2023-07-31T01:41:29;5.43;;;2.97;;
21386;SDS011;10854;45.922;6.716;2023-07-31T01:43:58;6.57;;;2.80;;
21386;SDS011;10854;45.922;6.716;2023-07-31T01:46:26;7.47;;;2.93;;
21386;SDS011;10854;45.922;6.716;2023-07-31T01:48:55;5.30;;;2.93;;
21386;SDS011;10854;45.922;6.716;2023-07-31T01:51:23;4.13;;;2.80;;
21386;SDS011;10854;45.922;6.716;2023-07-31T01:53:52;3.90;;;2.80;;
21386;SDS011;10854;45.922;6.716;2023-07-31T01:56:20;4.23;;;3.00;;
21386;SDS011;10854;45.922;6.716;2023-07-31T01:58:49;3.43;;;3.10;;
21386;SDS011;10854;45.922;6.716;2023-07-31T02:01:17;5.27;;;3.07;;
21386;SDS011;10854;45.922;6.716;2023-07-31T02:03:45;3.83;;;3.13;;
21386;SDS011;10854;45.922;6.716;2023-07-31T02:06:14;3.63;;;2.90;;
21386;SDS011;10854;45.922;6.716;2023-07-31T02:08:42;6.07;;;2.87;;
21386;SDS011;10854;45.922;6.716;2023-07-31T02:11:11;5.03;;;3.03;;
21386;SDS011;10854;45.922;6.716;2023-07-31T02:13:39;4.07;;;3.00;;
21386;SDS011;10854;45.922;6.716;2023-07-31T02:16:07;3.50;;;3.03;;
21386;SDS011;10854;45.922;6.716;2023-07-31T02:18:36;5.80;;;3.20;;
21386;SDS011;10854;45.922;6.716;2023-07-31T02:21:05;5.07;;;3.00;;
21386;SDS011;10854;45.922;6.716;2023-07-31T02:23:33;6.50;;;3.50;;
21386;SDS011;10854;45.922;6.716;2023-07-31T02:26:01;4.20;;;2.77;;
21386;SDS011;10854;45.922;6.716;2023-07-31T02:28:30;4.57;;;3.10;;
21386;SDS011;10854;45.922;6.716;2023-07-31T02:30:59;3.93;;;2.97;;
21386;SDS011;10854;45.922;6.716;2023-07-31T02:33:27;3.67;;;2.93;;
21386;SDS011;10854;45.922;6.716;2023-07-31T02:35:55;3.37;;;2.70;;
21386;SDS011;10854;45.922;6.716;2023-07-31T02:38:24;7.13;;;3.30;;
21386;SDS011;10854;45.922;6.716;2023-07-31T02:40:52;7.00;;;3.10;;
21386;SDS011;10854;45.922;6.716;2023-07-31T02:43:21;4.47;;;3.13;;
21386;SDS011;10854;45.922;6.716;2023-07-31T02:45:52;4.60;;;3.23;;
21386;SDS011;10854;45.922;6.716;2023-07-31T02:48:21;5.77;;;3.37;;
21386;SDS011;10854;45.922;6.716;2023-07-31T02:50:49;5.50;;;3.17;;
21386;SDS011;10854;45.922;6.716;2023-07-31T02:53:17;3.40;;;3.07;;
21386;SDS011;10854;45.922;6.716;2023-07-31T02:55:45;4.37;;;3.00;;
21386;SDS011;10854;45.922;6.716;2023-07-31T02:58:14;5.07;;;2.93;;
21386;SDS011;10854;45.922;6.716;2023-07-31T03:00:45;3.30;;;2.93;;
21386;SDS011;10854;45.922;6.716;2023-07-31T03:03:13;5.20;;;3.47;;
21386;SDS011;10854;45.922;6.716;2023-07-31T03:05:42;4.00;;;3.30;;
21386;SDS011;10854;45.922;6.716;2023-07-31T03:08:10;4.87;;;3.47;;
21386;SDS011;10854;45.922;6.716;2023-07-31T03:10:39;5.03;;;3.30;;
21386;SDS011;10854;45.922;6.716;2023-07-31T03:13:07;5.80;;;3.03;;
21386;SDS011;10854;45.922;6.716;2023-07-31T03:15:36;5.10;;;3.57;;
21386;SDS011;10854;45.922;6.716;2023-07-31T03:18:04;6.70;;;3.30;;
21386;SDS011;10854;45.922;6.716;2023-07-31T03:20:32;5.10;;;2.80;;
21386;SDS011;10854;45.922;6.716;2023-07-31T03:23:01;3.73;;;3.17;;
21386;SDS011;10854;45.922;6.716;2023-07-31T03:25:29;4.90;;;3.30;;
21386;SDS011;10854;45.922;6.716;2023-07-31T03:27:57;5.60;;;3.70;;
21386;SDS011;10854;45.922;6.716;2023-07-31T03:30:26;5.43;;;3.23;;
21386;SDS011;10854;45.922;6.716;2023-07-31T03:32:54;3.60;;;3.00;;
21386;SDS011;10854;45.922;6.716;2023-07-31T03:35:23;3.60;;;3.07;;
21386;SDS011;10854;45.922;6.716;2023-07-31T03:37:51;3.23;;;2.87;;
21386;SDS011;10854;45.922;6.716;2023-07-31T03:40:19;3.60;;;3.30;;
21386;SDS011;10854;45.922;6.716;2023-07-31T03:42:48;6.87;;;3.27;;
21386;SDS011;10854;45.922;6.716;2023-07-31T03:45:16;4.63;;;3.70;;
21386;SDS011;10854;45.922;6.716;2023-07-31T03:47:45;4.53;;;3.33;;
21386;SDS011;10854;45.922;6.716;2023-07-31T03:50:13;4.37;;;3.17;;
21386;SDS011;10854;45.922;6.716;2023-07-31T03:52:41;7.50;;;3.50;;
21386;SDS011;10854;45.922;6.716;2023-07-31T03:55:10;3.73;;;3.33;;
21386;SDS011;10854;45.922;6.716;2023-07-31T03:57:38;5.43;;;3.20;;
21386;SDS011;10854;45.922;6.716;2023-07-31T04:00:07;6.13;;;3.87;;
21386;SDS011;10854;45.922;6.716;2023-07-31T04:02:36;7.20;;;3.67;;
21386;SDS011;10854;45.922;6.716;2023-07-31T04:05:04;3.90;;;3.13;;
21386;SDS011;10854;45.922;6.716;2023-07-31T04:07:33;4.70;;;3.50;;
21386;SDS011;10854;45.922;6.716;2023-07-31T04:10:02;4.70;;;3.47;;
21386;SDS011;10854;45.922;6.716;2023-07-31T04:12:31;3.90;;;3.30;;
21386;SDS011;10854;45.922;6.716;2023-07-31T04:14:59;4.37;;;3.50;;
21386;SDS011;10854;45.922;6.716;2023-07-31T04:17:28;7.13;;;3.43;;
21386;SDS011;10854;45.922;6.716;2023-07-31T04:19:56;4.83;;;3.03;;
21386;SDS011;10854;45.922;6.716;2023-07-31T04:22:25;5.70;;;3.40;;
21386;SDS011;10854;45.922;6.716;2023-07-31T04:24:53;5.93;;;3.67;;
21386;SDS011;10854;45.922;6.716;2023-07-31T04:27:21;6.33;;;3.70;;
21386;SDS011;10854;45.922;6.716;2023-07-31T04:29:50;3.93;;;3.10;;
21386;SDS011;10854;45.922;6.716;2023-07-31T04:32:18;5.20;;;3.67;;
21386;SDS011;10854;45.922;6.716;2023-07-31T04:34:48;5.10;;;3.60;;
21386;SDS011;10854;45.922;6.716;2023-07-31T04:37:16;5.43;;;3.60;;
21386;SDS011;10854;45.922;6.716;2023-07-31T04:39:45;4.83;;;3.67;;
21386;SDS011;10854;45.922;6.716;2023-07-31T04:42:13;5.90;;;3.57;;
21386;SDS011;10854;45.922;6.716;2023-07-31T04:44:41;4.37;;;3.87;;
21386;SDS011;10854;45.922;6.716;2023-07-31T04:47:10;5.43;;;3.37;;
21386;SDS011;10854;45.922;6.716;2023-07-31T04:49:38;4.80;;;3.57;;
21386;SDS011;10854;45.922;6.716;2023-07-31T04:52:07;5.17;;;3.30;;
21386;SDS011;10854;45.922;6.716;2023-07-31T04:54:35;4.03;;;3.10;;
21386;SDS011;10854;45.922;6.716;2023-07-31T04:57:03;7.53;;;3.37;;
21386;SDS011;10854;45.922;6.716;2023-07-31T04:59:32;5.17;;;3.47;;
21386;SDS011;10854;45.922;6.716;2023-07-31T05:02:01;7.40;;;3.40;;
21386;SDS011;10854;45.922;6.716;2023-07-31T05:04:29;14.20;;;3.60;;
21386;SDS011;10854;45.922;6.716;2023-07-31T05:06:57;7.13;;;3.67;;
21386;SDS011;10854;45.922;6.716;2023-07-31T05:09:26;5.43;;;3.13;;
21386;SDS011;10854;45.922;6.716;2023-07-31T05:11:54;4.47;;;3.27;;
21386;SDS011;10854;45.922;6.716;2023-07-31T05:14:23;5.53;;;3.27;;
21386;SDS011;10854;45.922;6.716;2023-07-31T05:16:51;7.60;;;3.83;;
21386;SDS011;10854;45.922;6.716;2023-07-31T05:19:20;5.57;;;3.60;;
21386;SDS011;10854;45.922;6.716;2023-07-31T05:21:48;7.07;;;3.40;;
21386;SDS011;10854;45.922;6.716;2023-07-31T05:24:17;5.93;;;3.60;;
21386;SDS011;10854;45.922;6.716;2023-07-31T05:26:45;4.77;;;3.20;;
21386;SDS011;10854;45.922;6.716;2023-07-31T05:29:14;4.77;;;3.17;;
21386;SDS011;10854;45.922;6.716;2023-07-31T05:31:43;5.70;;;3.57;;
21386;SDS011;10854;45.922;6.716;2023-07-31T05:34:12;6.03;;;3.13;;
21386;SDS011;10854;45.922;6.716;2023-07-31T05:36:41;6.77;;;3.30;;
21386;SDS011;10854;45.922;6.716;2023-07-31T05:39:09;3.70;;;3.10;;
21386;SDS011;10854;45.922;6.716;2023-07-31T05:41:41;4.77;;;3.00;;
21386;SDS011;10854;45.922;6.716;2023-07-31T05:44:09;6.37;;;3.27;;
21386;SDS011;10854;45.922;6.716;2023-07-31T05:46:38;4.73;;;3.37;;
21386;SDS011;10854;45.922;6.716;2023-07-31T05:49:06;5.77;;;3.37;;
21386;SDS011;10854;45.922;6.716;2023-07-31T05:51:35;3.27;;;2.97;;
21386;SDS011;10854;45.922;6.716;2023-07-31T05:54:03;4.47;;;2.70;;
21386;SDS011;10854;45.922;6.716;2023-07-31T05:56:32;7.13;;;2.97;;
21386;SDS011;10854;45.922;6.716;2023-07-31T05:59:01;3.63;;;2.77;;
21386;SDS011;10854;45.922;6.716;2023-07-31T06:01:30;5.77;;;2.87;;
21386;SDS011;10854;45.922;6.716;2023-07-31T06:03:58;4.80;;;2.93;;
21386;SDS011;10854;45.922;6.716;2023-07-31T06:06:27;3.63;;;2.70;;
21386;SDS011;10854;45.922;6.716;2023-07-31T06:08:55;4.40;;;2.67;;
21386;SDS011;10854;45.922;6.716;2023-07-31T06:11:24;4.10;;;3.10;;
21386;SDS011;10854;45.922;6.716;2023-07-31T06:13:52;8.87;;;3.27;;
21386;SDS011;10854;45.922;6.716;2023-07-31T06:16:21;4.73;;;3.20;;
21386;SDS011;10854;45.922;6.716;2023-07-31T06:18:50;4.40;;;2.60;;
21386;SDS011;10854;45.922;6.716;2023-07-31T06:21:19;5.90;;;3.00;;
21386;SDS011;10854;45.922;6.716;2023-07-31T06:23:49;4.43;;;2.97;;
21386;SDS011;10854;45.922;6.716;2023-07-31T06:26:17;8.73;;;3.03;;
21386;SDS011;10854;45.922;6.716;2023-07-31T06:28:45;4.83;;;3.10;;
21386;SDS011;10854;45.922;6.716;2023-07-31T06:31:14;3.73;;;2.77;;
21386;SDS011;10854;45.922;6.716;2023-07-31T06:33:42;4.80;;;2.30;;
21386;SDS011;10854;45.922;6.716;2023-07-31T06:36:11;4.17;;;3.10;;
21386;SDS011;10854;45.922;6.716;2023-07-31T06:38:39;6.53;;;3.10;;
21386;SDS011;10854;45.922;6.716;2023-07-31T06:41:08;5.77;;;3.20;;
21386;SDS011;10854;45.922;6.716;2023-07-31T06:43:37;4.77;;;3.17;;
21386;SDS011;10854;45.922;6.716;2023-07-31T06:46:06;4.47;;;2.90;;
21386;SDS011;10854;45.922;6.716;2023-07-31T06:48:35;5.15;;;3.08;;
21386;SDS011;10854;45.922;6.716;2023-07-31T06:51:05;6.03;;;3.25;;
21386;SDS011;10854;45.922;6.716;2023-07-31T06:53:33;3.20;;;2.70;;
21386;SDS011;10854;45.922;6.716;2023-07-31T06:56:02;3.53;;;2.78;;
21386;SDS011;10854;45.922;6.716;2023-07-31T06:58:31;4.28;;;2.85;;
21386;SDS011;10854;45.922;6.716;2023-07-31T07:00:59;2.78;;;2.40;;
21386;SDS011;10854;45.922;6.716;2023-07-31T07:03:27;4.88;;;2.70;;
21386;SDS011;10854;45.922;6.716;2023-07-31T07:05:56;4.35;;;2.60;;
21386;SDS011;10854;45.922;6.716;2023-07-31T07:08:24;3.95;;;2.50;;
21386;SDS011;10854;45.922;6.716;2023-07-31T07:10:53;2.70;;;2.50;;
21386;SDS011;10854;45.922;6.716;2023-07-31T07:13:22;4.25;;;2.42;;
21386;SDS011;10854;45.922;6.716;2023-07-31T07:15:50;4.88;;;2.60;;
21386;SDS011;10854;45.922;6.716;2023-07-31T07:18:19;2.92;;;2.40;;
21386;SDS011;10854;45.922;6.716;2023-07-31T07:20:52;2.58;;;2.38;;
21386;SDS011;10854;45.922;6.716;2023-07-31T07:23:21;4.00;;;2.75;;
21386;SDS011;10854;45.922;6.716;2023-07-31T07:25:50;2.42;;;2.15;;
21386;SDS011;10854;45.922;6.716;2023-07-31T07:28:18;3.20;;;2.40;;
21386;SDS011;10854;45.922;6.716;2023-07-31T07:30:53;3.53;;;2.60;;
21386;SDS011;10854;45.922;6.716;2023-07-31T07:33:21;3.60;;;2.70;;
21386;SDS011;10854;45.922;6.716;2023-07-31T07:35:50;4.53;;;2.55;;
21386;SDS011;10854;45.922;6.716;2023-07-31T07:38:18;4.53;;;2.75;;
21386;SDS011;10854;45.922;6.716;2023-07-31T07:40:46;4.47;;;2.60;;
21386;SDS011;10854;45.922;6.716;2023-07-31T07:43:17;2.47;;;2.28;;
21386;SDS011;10854;45.922;6.716;2023-07-31T07:45:46;4.65;;;2.60;;
21386;SDS011;10854;45.922;6.716;2023-07-31T07:48:14;4.88;;;2.67;;
21386;SDS011;10854;45.922;6.716;2023-07-31T07:50:44;5.90;;;2.80;;
21386;SDS011;10854;45.922;6.716;2023-07-31T07:53:13;3.25;;;2.50;;
21386;SDS011;10854;45.922;6.716;2023-07-31T07:55:41;2.85;;;2.28;;
21386;SDS011;10854;45.922;6.716;2023-07-31T07:58:10;3.72;;;2.80;;
21386;SDS011;10854;45.922;6.716;2023-07-31T08:00:39;4.25;;;2.35;;
21386;SDS011;10854;45.922;6.716;2023-07-31T08:03:07;5.18;;;2.50;;
21386;SDS011;10854;45.922;6.716;2023-07-31T08:05:37;3.72;;;2.90;;
21386;SDS011;10854;45.922;6.716;2023-07-31T08:08:05;4.35;;;2.40;;
21386;SDS011;10854;45.922;6.716;2023-07-31T08:10:34;6.55;;;2.63;;
21386;SDS011;10854;45.922;6.716;2023-07-31T08:13:02;9.65;;;3.38;;
21386;SDS011;10854;45.922;6.716;2023-07-31T08:15:31;6.38;;;3.13;;
21386;SDS011;10854;45.922;6.716;2023-07-31T08:17:59;9.45;;;2.80;;
21386;SDS011;10854;45.922;6.716;2023-07-31T08:20:28;3.25;;;2.88;;
21386;SDS011;10854;45.922;6.716;2023-07-31T08:22:56;3.97;;;2.60;;
21386;SDS011;10854;45.922;6.716;2023-07-31T08:25:25;3.80;;;2.67;;
21386;SDS011;10854;45.922;6.716;2023-07-31T08:27:53;6.78;;;3.30;;
21386;SDS011;10854;45.922;6.716;2023-07-31T08:30:23;4.88;;;2.55;;
21386;SDS011;10854;45.922;6.716;2023-07-31T08:32:51;6.15;;;2.88;;
21386;SDS011;10854;45.922;6.716;2023-07-31T08:35:20;7.72;;;2.60;;
21386;SDS011;10854;45.922;6.716;2023-07-31T08:37:49;4.18;;;2.75;;
21386;SDS011;10854;45.922;6.716;2023-07-31T08:40:17;7.93;;;2.90;;
21386;SDS011;10854;45.922;6.716;2023-07-31T08:42:49;7.25;;;2.90;;
21386;SDS011;10854;45.922;6.716;2023-07-31T08:45:19;7.63;;;3.03;;
21386;SDS011;10854;45.922;6.716;2023-07-31T08:47:49;5.28;;;2.90;;
21386;SDS011;10854;45.922;6.716;2023-07-31T08:50:19;4.07;;;2.80;;
21386;SDS011;10854;45.922;6.716;2023-07-31T08:52:50;4.05;;;3.00;;
21386;SDS011;10854;45.922;6.716;2023-07-31T08:55:19;7.72;;;3.00;;
21386;SDS011;10854;45.922;6.716;2023-07-31T08:57:51;3.97;;;2.65;;
21386;SDS011;10854;45.922;6.716;2023-07-31T09:00:23;3.75;;;2.65;;
21386;SDS011;10854;45.922;6.716;2023-07-31T09:05:30;3.78;;;2.60;;
21386;SDS011;10854;45.922;6.716;2023-07-31T09:08:00;4.45;;;2.50;;
21386;SDS011;10854;45.922;6.716;2023-07-31T09:10:30;3.55;;;2.80;;
21386;SDS011;10854;45.922;6.716;2023-07-31T09:12:59;3.33;;;2.58;;
21386;SDS011;10854;45.922;6.716;2023-07-31T09:15:27;4.13;;;2.88;;
21386;SDS011;10854;45.922;6.716;2023-07-31T09:18:02;3.85;;;2.90;;
21386;SDS011;10854;45.922;6.716;2023-07-31T09:20:32;2.92;;;2.40;;
21386;SDS011;10854;45.922;6.716;2023-07-31T09:23:08;2.55;;;2.35;;
21386;SDS011;10854;45.922;6.716;2023-07-31T09:25:39;6.05;;;2.47;;
21386;SDS011;10854;45.922;6.716;2023-07-31T09:28:10;4.97;;;2.35;;
21386;SDS011;10854;45.922;6.716;2023-07-31T09:30:46;2.50;;;2.30;;
21386;SDS011;10854;45.922;6.716;2023-07-31T09:33:18;4.00;;;2.30;;
21386;SDS011;10854;45.922;6.716;2023-07-31T09:35:47;4.82;;;2.90;;
21386;SDS011;10854;45.922;6.716;2023-07-31T09:38:16;4.30;;;2.65;;
21386;SDS011;10854;45.922;6.716;2023-07-31T09:40:46;3.40;;;2.67;;
21386;SDS011;10854;45.922;6.716;2023-07-31T09:43:19;5.13;;;2.63;;
21386;SDS011;10854;45.922;6.716;2023-07-31T09:45:52;4.07;;;2.30;;
21386;SDS011;10854;45.922;6.716;2023-07-31T09:48:25;3.47;;;2.70;;
21386;SDS011;10854;45.922;6.716;2023-07-31T09:50:54;4.68;;;3.00;;
21386;SDS011;10854;45.922;6.716;2023-07-31T09:53:29;4.18;;;2.50;;
21386;SDS011;10854;45.922;6.716;2023-07-31T09:55:58;3.83;;;2.90;;
21386;SDS011;10854;45.922;6.716;2023-07-31T09:58:28;3.17;;;2.58;;
21386;SDS011;10854;45.922;6.716;2023-07-31T10:00:58;4.13;;;2.55;;
21386;SDS011;10854;45.922;6.716;2023-07-31T10:03:29;3.38;;;2.67;;
21386;SDS011;10854;45.922;6.716;2023-07-31T10:05:59;5.15;;;2.42;;
21386;SDS011;10854;45.922;6.716;2023-07-31T10:08:30;5.63;;;2.50;;
21386;SDS011;10854;45.922;6.716;2023-07-31T10:11:04;3.75;;;2.58;;
21386;SDS011;10854;45.922;6.716;2023-07-31T10:13:34;5.82;;;2.72;;
21386;SDS011;10854;45.922;6.716;2023-07-31T10:16:03;4.28;;;2.60;;
21386;SDS011;10854;45.922;6.716;2023-07-31T10:18:33;3.10;;;2.63;;
21386;SDS011;10854;45.922;6.716;2023-07-31T10:21:02;5.97;;;2.58;;
21386;SDS011;10854;45.922;6.716;2023-07-31T10:23:31;3.88;;;2.80;;
21386;SDS011;10854;45.922;6.716;2023-07-31T10:26:00;3.83;;;2.63;;
21386;SDS011;10854;45.922;6.716;2023-07-31T10:28:30;3.97;;;2.47;;
21386;SDS011;10854;45.922;6.716;2023-07-31T10:31:03;2.95;;;2.55;;
21386;SDS011;10854;45.922;6.716;2023-07-31T10:33:33;2.83;;;2.50;;
21386;SDS011;10854;45.922;6.716;2023-07-31T10:36:14;3.42;;;2.70;;
21386;SDS011;10854;45.922;6.716;2023-07-31T10:38:50;2.85;;;2.58;;
21386;SDS011;10854;45.922;6.716;2023-07-31T10:41:19;3.10;;;2.80;;
21386;SDS011;10854;45.922;6.716;2023-07-31T10:43:47;3.55;;;2.33;;
21386;SDS011;10854;45.922;6.716;2023-07-31T10:46:16;2.70;;;2.42;;
21386;SDS011;10854;45.922;6.716;2023-07-31T10:48:44;5.18;;;2.60;;
21386;SDS011;10854;45.922;6.716;2023-07-31T10:51:13;4.30;;;2.50;;
21386;SDS011;10854;45.922;6.716;2023-07-31T10:53:43;3.08;;;2.38;;
21386;SDS011;10854;45.922;6.716;2023-07-31T10:56:12;2.75;;;2.55;;
21386;SDS011;10854;45.922;6.716;2023-07-31T10:58:44;2.70;;;2.40;;
21386;SDS011;10854;45.922;6.716;2023-07-31T11:01:15;3.42;;;2.67;;
21386;SDS011;10854;45.922;6.716;2023-07-31T11:03:45;2.80;;;2.60;;
21386;SDS011;10854;45.922;6.716;2023-07-31T11:06:16;3.50;;;2.70;;
21386;SDS011;10854;45.922;6.716;2023-07-31T11:08:46;3.25;;;2.78;;
21386;SDS011;10854;45.922;6.716;2023-07-31T11:11:18;4.65;;;2.85;;
21386;SDS011;10854;45.922;6.716;2023-07-31T11:13:48;3.00;;;2.67;;
21386;SDS011;10854;45.922;6.716;2023-07-31T11:16:23;3.47;;;2.53;;
21386;SDS011;10854;45.922;6.716;2023-07-31T11:18:53;4.47;;;2.70;;
21386;SDS011;10854;45.922;6.716;2023-07-31T11:21:23;3.47;;;2.90;;
21386;SDS011;10854;45.922;6.716;2023-07-31T11:23:56;3.50;;;2.78;;
21386;SDS011;10854;45.922;6.716;2023-07-31T11:26:28;3.65;;;2.45;;
21386;SDS011;10854;45.922;6.716;2023-07-31T11:28:58;3.47;;;2.75;;
21386;SDS011;10854;45.922;6.716;2023-07-31T11:31:27;4.28;;;2.50;;
21386;SDS011;10854;45.922;6.716;2023-07-31T11:34:05;3.50;;;2.38;;
21386;SDS011;10854;45.922;6.716;2023-07-31T11:36:35;4.05;;;2.47;;
21386;SDS011;10854;45.922;6.716;2023-07-31T11:39:10;2.70;;;2.50;;
21386;SDS011;10854;45.922;6.716;2023-07-31T11:41:41;3.72;;;2.63;;
21386;SDS011;10854;45.922;6.716;2023-07-31T11:44:10;2.65;;;2.45;;
21386;SDS011;10854;45.922;6.716;2023-07-31T11:46:51;3.20;;;2.58;;
21386;SDS011;10854;45.922;6.716;2023-07-31T11:49:20;4.57;;;2.72;;
21386;SDS011;10854;45.922;6.716;2023-07-31T11:51:49;6.40;;;2.58;;
21386;SDS011;10854;45.922;6.716;2023-07-31T11:54:18;3.58;;;2.60;;
21386;SDS011;10854;45.922;6.716;2023-07-31T11:56:46;4.57;;;2.40;;
21386;SDS011;10854;45.922;6.716;2023-07-31T11:59:15;2.90;;;2.60;;
21386;SDS011;10854;45.922;6.716;2023-07-31T12:01:43;3.25;;;2.20;;
21386;SDS011;10854;45.922;6.716;2023-07-31T12:04:14;5.00;;;2.50;;
21386;SDS011;10854;45.922;6.716;2023-07-31T12:06:42;2.55;;;2.22;;
21386;SDS011;10854;45.922;6.716;2023-07-31T12:09:12;2.53;;;2.30;;
21386;SDS011;10854;45.922;6.716;2023-07-31T12:11:45;2.65;;;2.45;;
21386;SDS011;10854;45.922;6.716;2023-07-31T12:14:21;3.90;;;2.53;;
21386;SDS011;10854;45.922;6.716;2023-07-31T12:17:15;4.05;;;2.40;;
21386;SDS011;10854;45.922;6.716;2023-07-31T12:19:43;3.88;;;2.60;;
21386;SDS011;10854;45.922;6.716;2023-07-31T12:22:12;3.33;;;2.70;;
21386;SDS011;10854;45.922;6.716;2023-07-31T12:24:42;3.80;;;2.60;;
21386;SDS011;10854;45.922;6.716;2023-07-31T12:27:15;4.03;;;2.90;;
21386;SDS011;10854;45.922;6.716;2023-07-31T12:29:46;3.47;;;2.63;;
21386;SDS011;10854;45.922;6.716;2023-07-31T12:32:23;3.28;;;2.30;;
21386;SDS011;10854;45.922;6.716;2023-07-31T12:34:52;5.50;;;2.65;;
21386;SDS011;10854;45.922;6.716;2023-07-31T12:37:21;3.15;;;2.50;;
21386;SDS011;10854;45.922;6.716;2023-07-31T12:39:50;4.55;;;2.60;;
21386;SDS011;10854;45.922;6.716;2023-07-31T12:42:18;2.95;;;2.58;;
21386;SDS011;10854;45.922;6.716;2023-07-31T12:44:46;3.58;;;2.60;;
21386;SDS011;10854;45.922;6.716;2023-07-31T12:47:15;4.07;;;2.80;;
21386;SDS011;10854;45.922;6.716;2023-07-31T12:49:43;3.75;;;2.45;;
21386;SDS011;10854;45.922;6.716;2023-07-31T12:52:13;3.78;;;2.72;;
21386;SDS011;10854;45.922;6.716;2023-07-31T12:54:42;4.50;;;2.65;;
21386;SDS011;10854;45.922;6.716;2023-07-31T12:57:10;3.97;;;2.92;;
21386;SDS011;10854;45.922;6.716;2023-07-31T12:59:39;4.18;;;2.40;;
21386;SDS011;10854;45.922;6.716;2023-07-31T13:02:07;2.97;;;2.70;;
21386;SDS011;10854;45.922;6.716;2023-07-31T13:04:36;4.05;;;2.50;;
21386;SDS011;10854;45.922;6.716;2023-07-31T13:07:04;3.55;;;2.55;;
21386;SDS011;10854;45.922;6.716;2023-07-31T13:09:33;3.88;;;2.72;;
21386;SDS011;10854;45.922;6.716;2023-07-31T13:12:01;2.90;;;2.60;;
21386;SDS011;10854;45.922;6.716;2023-07-31T13:14:30;3.40;;;2.72;;
21386;SDS011;10854;45.922;6.716;2023-07-31T13:16:58;2.88;;;2.58;;
21386;SDS011;10854;45.922;6.716;2023-07-31T13:19:27;3.17;;;2.50;;
21386;SDS011;10854;45.922;6.716;2023-07-31T13:21:56;4.13;;;2.22;;
21386;SDS011;10854;45.922;6.716;2023-07-31T13:24:24;4.63;;;2.70;;
21386;SDS011;10854;45.922;6.716;2023-07-31T13:26:53;2.78;;;2.28;;
21386;SDS011;10854;45.922;6.716;2023-07-31T13:29:22;4.30;;;2.35;;
21386;SDS011;10854;45.922;6.716;2023-07-31T13:31:53;4.72;;;2.80;;
21386;SDS011;10854;45.922;6.716;2023-07-31T13:34:21;2.50;;;2.22;;
21386;SDS011;10854;45.922;6.716;2023-07-31T13:36:50;3.13;;;2.65;;
21386;SDS011;10854;45.922;6.716;2023-07-31T13:39:18;3.13;;;2.45;;
21386;SDS011;10854;45.922;6.716;2023-07-31T13:41:47;4.80;;;2.88;;
21386;SDS011;10854;45.922;6.716;2023-07-31T13:44:15;4.85;;;2.65;;
21386;SDS011;10854;45.922;6.716;2023-07-31T13:46:44;3.95;;;2.50;;
21386;SDS011;10854;45.922;6.716;2023-07-31T13:49:12;3.55;;;2.53;;
21386;SDS011;10854;45.922;6.716;2023-07-31T13:51:40;2.92;;;2.60;;
21386;SDS011;10854;45.922;6.716;2023-07-31T13:54:09;2.80;;;2.42;;
21386;SDS011;10854;45.922;6.716;2023-07-31T13:56:43;5.00;;;2.50;;
21386;SDS011;10854;45.922;6.716;2023-07-31T13:59:12;5.97;;;2.78;;
21386;SDS011;10854;45.922;6.716;2023-07-31T14:01:43;4.75;;;2.65;;
21386;SDS011;10854;45.922;6.716;2023-07-31T14:04:12;2.78;;;2.28;;
21386;SDS011;10854;45.922;6.716;2023-07-31T14:06:40;2.63;;;2.40;;
21386;SDS011;10854;45.922;6.716;2023-07-31T14:09:09;5.07;;;2.65;;
21386;SDS011;10854;45.922;6.716;2023-07-31T14:11:37;3.00;;;2.70;;
21386;SDS011;10854;45.922;6.716;2023-07-31T14:14:08;4.07;;;2.72;;
21386;SDS011;10854;45.922;6.716;2023-07-31T14:16:37;2.78;;;2.58;;
21386;SDS011;10854;45.922;6.716;2023-07-31T14:19:06;3.67;;;2.58;;
21386;SDS011;10854;45.922;6.716;2023-07-31T14:21:36;3.42;;;2.53;;
21386;SDS011;10854;45.922;6.716;2023-07-31T14:24:04;4.10;;;2.80;;
21386;SDS011;10854;45.922;6.716;2023-07-31T14:26:33;4.25;;;2.63;;
21386;SDS011;10854;45.922;6.716;2023-07-31T14:29:01;3.90;;;2.35;;
21386;SDS011;10854;45.922;6.716;2023-07-31T14:31:29;4.28;;;2.60;;
21386;SDS011;10854;45.922;6.716;2023-07-31T14:33:58;4.55;;;2.92;;
21386;SDS011;10854;45.922;6.716;2023-07-31T14:36:26;6.43;;;2.80;;
21386;SDS011;10854;45.922;6.716;2023-07-31T14:38:55;5.38;;;2.80;;
21386;SDS011;10854;45.922;6.716;2023-07-31T14:41:24;3.90;;;2.58;;
21386;SDS011;10854;45.922;6.716;2023-07-31T14:43:54;4.57;;;2.30;;
21386;SDS011;10854;45.922;6.716;2023-07-31T14:46:22;3.45;;;2.67;;
21386;SDS011;10854;45.922;6.716;2023-07-31T14:48:50;2.75;;;2.50;;
21386;SDS011;10854;45.922;6.716;2023-07-31T14:51:19;6.40;;;2.40;;
21386;SDS011;10854;45.922;6.716;2023-07-31T14:53:48;3.83;;;2.40;;
21386;SDS011;10854;45.922;6.716;2023-07-31T14:56:16;4.15;;;2.45;;
21386;SDS011;10854;45.922;6.716;2023-07-31T14:58:45;3.83;;;2.88;;
21386;SDS011;10854;45.922;6.716;2023-07-31T15:01:13;4.43;;;2.65;;
21386;SDS011;10854;45.922;6.716;2023-07-31T15:03:43;2.85;;;2.10;;
21386;SDS011;10854;45.922;6.716;2023-07-31T15:06:12;4.15;;;2.40;;
21386;SDS011;10854;45.922;6.716;2023-07-31T15:08:40;3.88;;;2.92;;
21386;SDS011;10854;45.922;6.716;2023-07-31T15:11:10;4.20;;;2.58;;
21386;SDS011;10854;45.922;6.716;2023-07-31T15:13:39;3.97;;;2.50;;